sensor_id;sensor_type;location;lat;lon;timestamp;P1;durP1;ratioP1;P2;durP2;ratioP2
7477;SDS011;3780;42.424;25.636;2023-04-25T10:14:08;8.67;;;5.23;;
7477;SDS011;3780;42.424;25.636;2023-04-25T10:16:33;7.93;;;6.03;;
7477;SDS011;3780;42.424;25.636;2023-04-25T10:19:00;6.25;;;3.40;;
7477;SDS011;3780;42.424;25.636;2023-04-25T10:21:26;6.20;;;2.80;;
7477;SDS011;3780;42.424;25.636;2023-04-25T10:23:52;4.88;;;2.80;;
7477;SDS011;3780;42.424;25.636;2023-04-25T10:26:18;7.40;;;6.32;;
7477;SDS011;3780;42.424;25.636;2023-04-25T10:28:59;8.77;;;4.20;;
7477;SDS011;3780;42.424;25.636;2023-04-25T10:31:26;8.32;;;4.07;;
7477;SDS011;3780;42.424;25.636;2023-04-25T10:33:51;4.88;;;3.08;;
7477;SDS011;3780;42.424;25.636;2023-04-25T10:36:21;7.38;;;5.10;;
7477;SDS011;3780;42.424;25.636;2023-04-25T10:38:47;8.70;;;4.88;;
7477;SDS011;3780;42.424;25.636;2023-04-25T10:41:13;8.40;;;4.28;;
7477;SDS011;3780;42.424;25.636;2023-04-25T10:43:42;6.10;;;3.55;;
7477;SDS011;3780;42.424;25.636;2023-04-25T10:46:23;5.22;;;3.53;;
7477;SDS011;3780;42.424;25.636;2023-04-25T10:48:59;2.88;;;2.30;;
7477;SDS011;3780;42.424;25.636;2023-04-25T10:56:20;4.47;;;2.42;;
7477;SDS011;3780;42.424;25.636;2023-04-25T10:58:46;4.05;;;2.42;;
7477;SDS011;3780;42.424;25.636;2023-04-25T11:01:12;3.00;;;2.20;;
7477;SDS011;3780;42.424;25.636;2023-04-25T11:03:42;4.75;;;2.25;;
7477;SDS011;3780;42.424;25.636;2023-04-25T11:06:29;7.70;;;2.67;;
7477;SDS011;3780;42.424;25.636;2023-04-25T11:08:56;1.90;;;1.17;;
7477;SDS011;3780;42.424;25.636;2023-04-25T11:11:22;5.25;;;1.17;;
7477;SDS011;3780;42.424;25.636;2023-04-25T11:13:47;6.00;;;1.55;;
7477;SDS011;3780;42.424;25.636;2023-04-25T11:16:14;3.17;;;1.58;;
7477;SDS011;3780;42.424;25.636;2023-04-25T11:18:43;9.43;;;1.83;;
7477;SDS011;3780;42.424;25.636;2023-04-25T11:21:08;16.77;;;2.90;;
7477;SDS011;3780;42.424;25.636;2023-04-25T11:23:33;8.00;;;3.60;;
7477;SDS011;3780;42.424;25.636;2023-04-25T11:25:59;6.15;;;2.33;;
7477;SDS011;3780;42.424;25.636;2023-04-25T11:28:26;8.35;;;2.33;;
7477;SDS011;3780;42.424;25.636;2023-04-25T11:30:51;7.47;;;1.75;;
7477;SDS011;3780;42.424;25.636;2023-04-25T11:33:17;9.98;;;1.90;;
7477;SDS011;3780;42.424;25.636;2023-04-25T11:35:42;2.70;;;2.00;;
7477;SDS011;3780;42.424;25.636;2023-04-25T11:38:07;9.30;;;2.20;;
7477;SDS011;3780;42.424;25.636;2023-04-25T11:40:34;3.17;;;1.20;;
7477;SDS011;3780;42.424;25.636;2023-04-25T11:43:00;2.53;;;1.40;;
7477;SDS011;3780;42.424;25.636;2023-04-25T11:45:26;3.53;;;1.30;;
7477;SDS011;3780;42.424;25.636;2023-04-25T11:47:51;2.47;;;1.30;;
7477;SDS011;3780;42.424;25.636;2023-04-25T11:50:17;3.97;;;1.30;;
7477;SDS011;3780;42.424;25.636;2023-04-25T11:52:43;6.60;;;1.40;;
7477;SDS011;3780;42.424;25.636;2023-04-25T11:55:09;4.80;;;1.40;;
7477;SDS011;3780;42.424;25.636;2023-04-25T11:57:35;4.03;;;1.30;;
7477;SDS011;3780;42.424;25.636;2023-04-25T12:02:36;1.77;;;1.05;;
7477;SDS011;3780;42.424;25.636;2023-04-25T12:05:01;3.97;;;1.20;;
7477;SDS011;3780;42.424;25.636;2023-04-25T12:07:31;2.92;;;1.02;;
7477;SDS011;3780;42.424;25.636;2023-04-25T12:09:56;5.63;;;2.60;;
7477;SDS011;3780;42.424;25.636;2023-04-25T12:12:22;3.72;;;1.58;;
7477;SDS011;3780;42.424;25.636;2023-04-25T12:14:51;1.83;;;1.10;;
7477;SDS011;3780;42.424;25.636;2023-04-25T12:17:17;5.95;;;1.70;;
7477;SDS011;3780;42.424;25.636;2023-04-25T12:19:42;4.35;;;1.67;;
7477;SDS011;3780;42.424;25.636;2023-04-25T12:22:21;6.75;;;2.45;;
7477;SDS011;3780;42.424;25.636;2023-04-25T12:24:47;1.83;;;1.60;;
7477;SDS011;3780;42.424;25.636;2023-04-25T12:27:14;7.80;;;1.80;;
7477;SDS011;3780;42.424;25.636;2023-04-25T12:29:49;4.45;;;2.05;;
7477;SDS011;3780;42.424;25.636;2023-04-25T12:32:15;3.05;;;2.00;;
7477;SDS011;3780;42.424;25.636;2023-04-25T12:34:40;4.45;;;1.77;;
7477;SDS011;3780;42.424;25.636;2023-04-25T12:37:05;4.90;;;1.60;;
7477;SDS011;3780;42.424;25.636;2023-04-25T12:39:31;2.42;;;1.60;;
7477;SDS011;3780;42.424;25.636;2023-04-25T12:41:56;3.67;;;1.60;;
7477;SDS011;3780;42.424;25.636;2023-04-25T12:44:21;8.00;;;2.20;;
7477;SDS011;3780;42.424;25.636;2023-04-25T12:46:47;2.00;;;1.10;;
7477;SDS011;3780;42.424;25.636;2023-04-25T12:49:13;4.88;;;1.42;;
7477;SDS011;3780;42.424;25.636;2023-04-25T12:51:38;3.10;;;1.13;;
7477;SDS011;3780;42.424;25.636;2023-04-25T12:54:04;7.18;;;1.23;;
7477;SDS011;3780;42.424;25.636;2023-04-25T12:56:31;3.45;;;0.80;;
7477;SDS011;3780;42.424;25.636;2023-04-25T12:58:56;1.58;;;0.85;;
7477;SDS011;3780;42.424;25.636;2023-04-25T13:01:22;1.38;;;0.90;;
7477;SDS011;3780;42.424;25.636;2023-04-25T13:03:47;1.60;;;1.10;;
7477;SDS011;3780;42.424;25.636;2023-04-25T13:06:13;1.17;;;0.80;;
7477;SDS011;3780;42.424;25.636;2023-04-25T13:08:39;4.10;;;1.73;;
7477;SDS011;3780;42.424;25.636;2023-04-25T13:11:06;1.60;;;1.10;;
7477;SDS011;3780;42.424;25.636;2023-04-25T13:13:32;7.65;;;1.38;;
7477;SDS011;3780;42.424;25.636;2023-04-25T13:15:59;3.47;;;1.40;;
7477;SDS011;3780;42.424;25.636;2023-04-25T13:18:24;1.45;;;1.13;;
7477;SDS011;3780;42.424;25.636;2023-04-25T13:20:54;2.80;;;1.30;;
7477;SDS011;3780;42.424;25.636;2023-04-25T13:23:19;4.40;;;1.50;;
7477;SDS011;3780;42.424;25.636;2023-04-25T13:25:45;9.55;;;2.20;;
7477;SDS011;3780;42.424;25.636;2023-04-25T13:28:11;3.55;;;1.50;;
7477;SDS011;3780;42.424;25.636;2023-04-25T13:30:36;11.52;;;7.85;;
7477;SDS011;3780;42.424;25.636;2023-04-25T13:33:02;3.10;;;1.70;;
7477;SDS011;3780;42.424;25.636;2023-04-25T13:35:28;5.53;;;1.83;;
7477;SDS011;3780;42.424;25.636;2023-04-25T13:37:54;3.03;;;2.35;;
7477;SDS011;3780;42.424;25.636;2023-04-25T13:40:19;3.72;;;2.90;;
7477;SDS011;3780;42.424;25.636;2023-04-25T13:42:45;2.67;;;2.00;;
7477;SDS011;3780;42.424;25.636;2023-04-25T13:45:10;3.13;;;1.80;;
7477;SDS011;3780;42.424;25.636;2023-04-25T13:47:36;5.60;;;1.98;;
7477;SDS011;3780;42.424;25.636;2023-04-25T13:50:01;9.27;;;3.00;;
7477;SDS011;3780;42.424;25.636;2023-04-25T13:52:28;4.90;;;2.03;;
7477;SDS011;3780;42.424;25.636;2023-04-25T13:54:53;4.68;;;2.10;;
7477;SDS011;3780;42.424;25.636;2023-04-25T13:57:19;11.20;;;2.00;;
7477;SDS011;3780;42.424;25.636;2023-04-25T13:59:44;8.38;;;2.60;;
7477;SDS011;3780;42.424;25.636;2023-04-25T14:02:11;2.65;;;1.95;;
7477;SDS011;3780;42.424;25.636;2023-04-25T14:04:37;9.32;;;2.90;;
7477;SDS011;3780;42.424;25.636;2023-04-25T14:07:02;18.10;;;11.45;;
7477;SDS011;3780;42.424;25.636;2023-04-25T14:09:28;3.45;;;2.30;;
7477;SDS011;3780;42.424;25.636;2023-04-25T14:11:54;4.55;;;3.30;;
7477;SDS011;3780;42.424;25.636;2023-04-25T14:14:20;8.20;;;2.65;;
7477;SDS011;3780;42.424;25.636;2023-04-25T14:16:48;5.82;;;2.83;;
7477;SDS011;3780;42.424;25.636;2023-04-25T14:19:14;8.85;;;3.10;;
7477;SDS011;3780;42.424;25.636;2023-04-25T14:21:40;8.60;;;3.13;;
7477;SDS011;3780;42.424;25.636;2023-04-25T14:24:05;15.48;;;3.50;;
7477;SDS011;3780;42.424;25.636;2023-04-25T14:26:31;7.50;;;2.63;;
7477;SDS011;3780;42.424;25.636;2023-04-25T14:28:58;19.48;;;4.10;;
7477;SDS011;3780;42.424;25.636;2023-04-25T14:31:23;13.10;;;4.20;;
7477;SDS011;3780;42.424;25.636;2023-04-25T14:33:48;14.50;;;3.38;;
7477;SDS011;3780;42.424;25.636;2023-04-25T14:36:14;8.73;;;2.83;;
7477;SDS011;3780;42.424;25.636;2023-04-25T14:38:39;9.85;;;2.30;;
7477;SDS011;3780;42.424;25.636;2023-04-25T14:41:04;10.00;;;3.05;;
7477;SDS011;3780;42.424;25.636;2023-04-25T14:43:30;5.97;;;2.55;;
7477;SDS011;3780;42.424;25.636;2023-04-25T14:45:56;11.27;;;2.50;;
7477;SDS011;3780;42.424;25.636;2023-04-25T14:48:21;7.38;;;2.55;;
7477;SDS011;3780;42.424;25.636;2023-04-25T14:50:46;3.90;;;1.90;;
7477;SDS011;3780;42.424;25.636;2023-04-25T14:53:12;2.72;;;1.98;;
7477;SDS011;3780;42.424;25.636;2023-04-25T14:55:37;2.65;;;2.03;;
7477;SDS011;3780;42.424;25.636;2023-04-25T14:58:03;5.57;;;2.40;;
7477;SDS011;3780;42.424;25.636;2023-04-25T15:00:28;6.15;;;2.65;;
7477;SDS011;3780;42.424;25.636;2023-04-25T15:02:55;7.57;;;3.53;;
7477;SDS011;3780;42.424;25.636;2023-04-25T15:05:21;9.70;;;4.50;;
7477;SDS011;3780;42.424;25.636;2023-04-25T15:07:46;20.77;;;7.60;;
7477;SDS011;3780;42.424;25.636;2023-04-25T15:10:12;18.58;;;5.70;;
7477;SDS011;3780;42.424;25.636;2023-04-25T15:12:44;10.85;;;4.25;;
7477;SDS011;3780;42.424;25.636;2023-04-25T15:15:10;12.27;;;4.00;;
7477;SDS011;3780;42.424;25.636;2023-04-25T15:17:40;11.35;;;3.38;;
7477;SDS011;3780;42.424;25.636;2023-04-25T15:20:06;7.97;;;3.10;;
7477;SDS011;3780;42.424;25.636;2023-04-25T15:22:32;6.32;;;3.55;;
7477;SDS011;3780;42.424;25.636;2023-04-25T15:24:57;5.78;;;3.22;;
7477;SDS011;3780;42.424;25.636;2023-04-25T15:27:22;8.15;;;3.78;;
7477;SDS011;3780;42.424;25.636;2023-04-25T15:29:48;5.35;;;2.97;;
7477;SDS011;3780;42.424;25.636;2023-04-25T15:32:13;7.80;;;2.95;;
7477;SDS011;3780;42.424;25.636;2023-04-25T15:34:38;12.68;;;9.85;;
7477;SDS011;3780;42.424;25.636;2023-04-25T15:37:04;5.70;;;3.67;;
7477;SDS011;3780;42.424;25.636;2023-04-25T15:39:29;3.60;;;3.15;;
7477;SDS011;3780;42.424;25.636;2023-04-25T15:41:54;6.78;;;4.22;;
7477;SDS011;3780;42.424;25.636;2023-04-25T15:44:20;10.48;;;4.03;;
7477;SDS011;3780;42.424;25.636;2023-04-25T15:46:45;8.40;;;4.65;;
7477;SDS011;3780;42.424;25.636;2023-04-25T15:49:11;6.93;;;3.90;;
7477;SDS011;3780;42.424;25.636;2023-04-25T15:51:37;4.53;;;3.90;;
7477;SDS011;3780;42.424;25.636;2023-04-25T15:54:02;5.10;;;3.33;;
7477;SDS011;3780;42.424;25.636;2023-04-25T15:56:28;7.72;;;3.40;;
7477;SDS011;3780;42.424;25.636;2023-04-25T15:58:53;7.50;;;3.65;;
7477;SDS011;3780;42.424;25.636;2023-04-25T16:01:19;10.90;;;4.72;;
7477;SDS011;3780;42.424;25.636;2023-04-25T16:03:48;6.97;;;4.13;;
7477;SDS011;3780;42.424;25.636;2023-04-25T16:06:14;5.88;;;3.55;;
7477;SDS011;3780;42.424;25.636;2023-04-25T16:08:39;7.95;;;4.03;;
7477;SDS011;3780;42.424;25.636;2023-04-25T16:11:05;3.30;;;2.70;;
7477;SDS011;3780;42.424;25.636;2023-04-25T16:13:30;3.70;;;2.05;;
7477;SDS011;3780;42.424;25.636;2023-04-25T16:15:57;4.20;;;2.13;;
7477;SDS011;3780;42.424;25.636;2023-04-25T16:18:22;3.95;;;1.63;;
7477;SDS011;3780;42.424;25.636;2023-04-25T16:20:48;5.90;;;2.63;;
7477;SDS011;3780;42.424;25.636;2023-04-25T16:23:13;5.82;;;3.13;;
7477;SDS011;3780;42.424;25.636;2023-04-25T16:25:38;7.03;;;3.67;;
7477;SDS011;3780;42.424;25.636;2023-04-25T16:28:05;5.57;;;2.70;;
7477;SDS011;3780;42.424;25.636;2023-04-25T16:30:30;10.65;;;4.22;;
7477;SDS011;3780;42.424;25.636;2023-04-25T16:32:55;4.47;;;3.40;;
7477;SDS011;3780;42.424;25.636;2023-04-25T16:35:21;14.05;;;11.02;;
7477;SDS011;3780;42.424;25.636;2023-04-25T16:37:47;11.43;;;6.35;;
7477;SDS011;3780;42.424;25.636;2023-04-25T16:40:12;6.22;;;2.40;;
7477;SDS011;3780;42.424;25.636;2023-04-25T16:42:38;4.60;;;2.97;;
7477;SDS011;3780;42.424;25.636;2023-04-25T16:45:03;5.20;;;3.22;;
7477;SDS011;3780;42.424;25.636;2023-04-25T16:47:29;8.88;;;3.53;;
7477;SDS011;3780;42.424;25.636;2023-04-25T16:49:55;7.45;;;4.20;;
7477;SDS011;3780;42.424;25.636;2023-04-25T16:52:21;8.55;;;4.13;;
7477;SDS011;3780;42.424;25.636;2023-04-25T16:54:47;7.90;;;3.53;;
7477;SDS011;3780;42.424;25.636;2023-04-25T16:57:13;6.32;;;3.42;;
7477;SDS011;3780;42.424;25.636;2023-04-25T16:59:38;3.90;;;3.20;;
7477;SDS011;3780;42.424;25.636;2023-04-25T17:02:04;4.90;;;3.60;;
7477;SDS011;3780;42.424;25.636;2023-04-25T17:04:29;7.20;;;4.50;;
7477;SDS011;3780;42.424;25.636;2023-04-25T17:06:54;5.97;;;4.30;;
7477;SDS011;3780;42.424;25.636;2023-04-25T17:09:20;5.28;;;4.38;;
7477;SDS011;3780;42.424;25.636;2023-04-25T17:11:45;5.80;;;4.88;;
7477;SDS011;3780;42.424;25.636;2023-04-25T17:14:11;8.35;;;7.53;;
7477;SDS011;3780;42.424;25.636;2023-04-25T17:16:36;14.77;;;13.50;;
7477;SDS011;3780;42.424;25.636;2023-04-25T17:19:05;19.50;;;17.52;;
7477;SDS011;3780;42.424;25.636;2023-04-25T17:21:31;20.40;;;18.33;;
7477;SDS011;3780;42.424;25.636;2023-04-25T17:23:57;17.98;;;16.30;;
7477;SDS011;3780;42.424;25.636;2023-04-25T17:26:23;15.57;;;13.98;;
7477;SDS011;3780;42.424;25.636;2023-04-25T17:28:48;14.77;;;13.48;;
7477;SDS011;3780;42.424;25.636;2023-04-25T17:31:14;16.08;;;14.55;;
7477;SDS011;3780;42.424;25.636;2023-04-25T17:33:40;11.73;;;10.52;;
7477;SDS011;3780;42.424;25.636;2023-04-25T17:36:06;9.45;;;7.95;;
7477;SDS011;3780;42.424;25.636;2023-04-25T17:38:31;9.18;;;7.13;;
7477;SDS011;3780;42.424;25.636;2023-04-25T17:40:57;8.65;;;6.82;;
7477;SDS011;3780;42.424;25.636;2023-04-25T17:43:22;9.05;;;7.13;;
7477;SDS011;3780;42.424;25.636;2023-04-25T17:45:47;7.82;;;6.43;;
7477;SDS011;3780;42.424;25.636;2023-04-25T17:48:13;12.65;;;7.18;;
7477;SDS011;3780;42.424;25.636;2023-04-25T17:50:38;11.55;;;7.15;;
7477;SDS011;3780;42.424;25.636;2023-04-25T17:53:03;14.10;;;8.85;;
7477;SDS011;3780;42.424;25.636;2023-04-25T17:55:29;11.10;;;7.75;;
7477;SDS011;3780;42.424;25.636;2023-04-25T17:57:54;10.95;;;7.25;;
7477;SDS011;3780;42.424;25.636;2023-04-25T18:00:20;11.95;;;7.20;;
7477;SDS011;3780;42.424;25.636;2023-04-25T18:02:45;11.65;;;8.40;;
7477;SDS011;3780;42.424;25.636;2023-04-25T18:05:12;9.93;;;7.57;;
7477;SDS011;3780;42.424;25.636;2023-04-25T18:07:37;9.43;;;8.07;;
7477;SDS011;3780;42.424;25.636;2023-04-25T18:10:03;11.95;;;8.68;;
7477;SDS011;3780;42.424;25.636;2023-04-25T18:12:30;11.13;;;8.63;;
7477;SDS011;3780;42.424;25.636;2023-04-25T18:14:57;9.68;;;6.57;;
7477;SDS011;3780;42.424;25.636;2023-04-25T18:17:22;8.32;;;6.32;;
7477;SDS011;3780;42.424;25.636;2023-04-25T18:19:49;7.47;;;5.90;;
7477;SDS011;3780;42.424;25.636;2023-04-25T18:22:15;8.18;;;6.07;;
7477;SDS011;3780;42.424;25.636;2023-04-25T18:24:41;9.65;;;7.43;;
7477;SDS011;3780;42.424;25.636;2023-04-25T18:27:08;10.45;;;6.97;;
7477;SDS011;3780;42.424;25.636;2023-04-25T18:29:34;10.27;;;6.88;;
7477;SDS011;3780;42.424;25.636;2023-04-25T18:32:01;8.93;;;6.80;;
7477;SDS011;3780;42.424;25.636;2023-04-25T18:34:28;8.55;;;5.88;;
7477;SDS011;3780;42.424;25.636;2023-04-25T18:36:53;6.15;;;5.50;;
7477;SDS011;3780;42.424;25.636;2023-04-25T18:39:20;8.60;;;6.22;;
7477;SDS011;3780;42.424;25.636;2023-04-25T18:41:45;9.00;;;5.88;;
7477;SDS011;3780;42.424;25.636;2023-04-25T18:44:11;8.05;;;6.45;;
7477;SDS011;3780;42.424;25.636;2023-04-25T18:46:36;9.38;;;7.43;;
7477;SDS011;3780;42.424;25.636;2023-04-25T18:49:02;8.25;;;6.95;;
7477;SDS011;3780;42.424;25.636;2023-04-25T18:51:28;8.13;;;6.88;;
7477;SDS011;3780;42.424;25.636;2023-04-25T18:53:55;9.10;;;6.88;;
7477;SDS011;3780;42.424;25.636;2023-04-25T18:56:21;12.43;;;7.20;;
7477;SDS011;3780;42.424;25.636;2023-04-25T18:58:48;9.63;;;7.80;;
7477;SDS011;3780;42.424;25.636;2023-04-25T19:01:17;9.63;;;8.25;;
7477;SDS011;3780;42.424;25.636;2023-04-25T19:03:43;10.18;;;8.23;;
7477;SDS011;3780;42.424;25.636;2023-04-25T19:06:09;11.00;;;7.63;;
7477;SDS011;3780;42.424;25.636;2023-04-25T19:08:34;7.03;;;5.80;;
7477;SDS011;3780;42.424;25.636;2023-04-25T19:11:00;8.05;;;6.07;;
7477;SDS011;3780;42.424;25.636;2023-04-25T19:13:26;8.45;;;6.93;;
7477;SDS011;3780;42.424;25.636;2023-04-25T19:15:52;7.70;;;6.40;;
7477;SDS011;3780;42.424;25.636;2023-04-25T19:18:18;5.20;;;4.20;;
7477;SDS011;3780;42.424;25.636;2023-04-25T19:20:43;7.07;;;5.18;;
7477;SDS011;3780;42.424;25.636;2023-04-25T19:23:09;4.88;;;3.70;;
7477;SDS011;3780;42.424;25.636;2023-04-25T19:25:37;33.80;;;19.05;;
7477;SDS011;3780;42.424;25.636;2023-04-25T19:28:02;81.65;;;34.25;;
7477;SDS011;3780;42.424;25.636;2023-04-25T19:30:28;59.08;;;23.45;;
7477;SDS011;3780;42.424;25.636;2023-04-25T19:32:53;4.13;;;3.30;;
7477;SDS011;3780;42.424;25.636;2023-04-25T19:35:20;4.75;;;2.85;;
7477;SDS011;3780;42.424;25.636;2023-04-25T19:37:46;8.98;;;4.15;;
7477;SDS011;3780;42.424;25.636;2023-04-25T19:40:15;20.60;;;9.25;;
7477;SDS011;3780;42.424;25.636;2023-04-25T19:42:41;15.68;;;7.53;;
7477;SDS011;3780;42.424;25.636;2023-04-25T19:45:07;6.97;;;3.75;;
7477;SDS011;3780;42.424;25.636;2023-04-25T19:47:33;12.43;;;7.30;;
7477;SDS011;3780;42.424;25.636;2023-04-25T19:49:58;11.43;;;6.97;;
7477;SDS011;3780;42.424;25.636;2023-04-25T19:52:23;9.70;;;6.25;;
7477;SDS011;3780;42.424;25.636;2023-04-25T19:54:49;9.55;;;5.82;;
7477;SDS011;3780;42.424;25.636;2023-04-25T19:57:14;7.75;;;5.47;;
7477;SDS011;3780;42.424;25.636;2023-04-25T19:59:40;6.45;;;5.63;;
7477;SDS011;3780;42.424;25.636;2023-04-25T20:02:05;10.05;;;6.75;;
7477;SDS011;3780;42.424;25.636;2023-04-25T20:04:32;8.20;;;5.85;;
7477;SDS011;3780;42.424;25.636;2023-04-25T20:06:58;6.13;;;5.15;;
7477;SDS011;3780;42.424;25.636;2023-04-25T20:09:23;10.80;;;5.80;;
7477;SDS011;3780;42.424;25.636;2023-04-25T20:11:48;8.77;;;5.60;;
7477;SDS011;3780;42.424;25.636;2023-04-25T20:14:14;8.52;;;5.60;;
7477;SDS011;3780;42.424;25.636;2023-04-25T20:16:39;8.02;;;5.78;;
7477;SDS011;3780;42.424;25.636;2023-04-25T20:19:05;6.20;;;3.92;;
7477;SDS011;3780;42.424;25.636;2023-04-25T20:21:30;7.53;;;3.97;;
7477;SDS011;3780;42.424;25.636;2023-04-25T20:23:58;5.13;;;4.38;;
7477;SDS011;3780;42.424;25.636;2023-04-25T20:26:25;5.13;;;3.28;;
7477;SDS011;3780;42.424;25.636;2023-04-25T20:28:50;5.00;;;3.22;;
7477;SDS011;3780;42.424;25.636;2023-04-25T20:31:16;6.97;;;3.50;;
7477;SDS011;3780;42.424;25.636;2023-04-25T20:33:41;4.85;;;2.60;;
7477;SDS011;3780;42.424;25.636;2023-04-25T20:36:07;7.85;;;3.10;;
7477;SDS011;3780;42.424;25.636;2023-04-25T20:38:33;5.80;;;3.90;;
7477;SDS011;3780;42.424;25.636;2023-04-25T20:40:59;5.00;;;3.58;;
7477;SDS011;3780;42.424;25.636;2023-04-25T20:43:24;4.38;;;3.03;;
7477;SDS011;3780;42.424;25.636;2023-04-25T20:45:50;4.15;;;2.72;;
7477;SDS011;3780;42.424;25.636;2023-04-25T20:48:15;3.53;;;2.92;;
7477;SDS011;3780;42.424;25.636;2023-04-25T20:50:40;3.88;;;2.33;;
7477;SDS011;3780;42.424;25.636;2023-04-25T20:53:05;4.18;;;2.40;;
7477;SDS011;3780;42.424;25.636;2023-04-25T20:55:31;3.55;;;2.38;;
7477;SDS011;3780;42.424;25.636;2023-04-25T20:57:56;3.20;;;2.28;;
7477;SDS011;3780;42.424;25.636;2023-04-25T21:00:22;3.05;;;2.03;;
7477;SDS011;3780;42.424;25.636;2023-04-25T21:02:53;4.47;;;2.38;;
7477;SDS011;3780;42.424;25.636;2023-04-25T21:05:18;3.75;;;1.90;;
7477;SDS011;3780;42.424;25.636;2023-04-25T21:07:46;5.38;;;2.63;;
7477;SDS011;3780;42.424;25.636;2023-04-25T21:10:12;3.45;;;2.42;;
7477;SDS011;3780;42.424;25.636;2023-04-25T21:12:38;2.70;;;2.10;;
7477;SDS011;3780;42.424;25.636;2023-04-25T21:15:04;8.18;;;2.03;;
7477;SDS011;3780;42.424;25.636;2023-04-25T21:17:30;2.90;;;2.20;;
7477;SDS011;3780;42.424;25.636;2023-04-25T21:19:55;2.40;;;1.90;;
7477;SDS011;3780;42.424;25.636;2023-04-25T21:22:21;3.35;;;2.00;;
7477;SDS011;3780;42.424;25.636;2023-04-25T21:24:46;3.28;;;2.17;;
7477;SDS011;3780;42.424;25.636;2023-04-25T21:27:14;4.38;;;2.08;;
7477;SDS011;3780;42.424;25.636;2023-04-25T21:29:41;2.80;;;2.20;;
7477;SDS011;3780;42.424;25.636;2023-04-25T21:32:06;2.28;;;1.85;;
7477;SDS011;3780;42.424;25.636;2023-04-25T21:34:32;7.47;;;1.90;;
7477;SDS011;3780;42.424;25.636;2023-04-25T21:36:58;2.40;;;1.80;;
7477;SDS011;3780;42.424;25.636;2023-04-25T21:39:23;3.22;;;2.10;;
7477;SDS011;3780;42.424;25.636;2023-04-25T21:41:49;3.25;;;1.77;;
7477;SDS011;3780;42.424;25.636;2023-04-25T21:44:14;2.30;;;1.65;;
7477;SDS011;3780;42.424;25.636;2023-04-25T21:46:40;6.15;;;2.40;;
7477;SDS011;3780;42.424;25.636;2023-04-25T21:49:05;3.03;;;1.90;;
7477;SDS011;3780;42.424;25.636;2023-04-25T21:51:31;3.92;;;2.17;;
7477;SDS011;3780;42.424;25.636;2023-04-25T21:53:56;4.20;;;2.28;;
7477;SDS011;3780;42.424;25.636;2023-04-25T21:56:24;2.05;;;1.80;;
7477;SDS011;3780;42.424;25.636;2023-04-25T21:58:49;6.15;;;2.30;;
7477;SDS011;3780;42.424;25.636;2023-04-25T22:01:15;4.47;;;2.15;;
7477;SDS011;3780;42.424;25.636;2023-04-25T22:03:40;2.45;;;2.08;;
7477;SDS011;3780;42.424;25.636;2023-04-25T22:06:06;5.65;;;2.20;;
7477;SDS011;3780;42.424;25.636;2023-04-25T22:08:31;2.70;;;2.30;;
7477;SDS011;3780;42.424;25.636;2023-04-25T22:10:57;5.30;;;3.65;;
7477;SDS011;3780;42.424;25.636;2023-04-25T22:13:22;4.95;;;3.53;;
7477;SDS011;3780;42.424;25.636;2023-04-25T22:15:48;2.47;;;2.28;;
7477;SDS011;3780;42.424;25.636;2023-04-25T22:18:13;2.60;;;2.08;;
7477;SDS011;3780;42.424;25.636;2023-04-25T22:20:40;2.88;;;2.20;;
7477;SDS011;3780;42.424;25.636;2023-04-25T22:23:05;4.30;;;2.40;;
7477;SDS011;3780;42.424;25.636;2023-04-25T22:25:31;3.90;;;2.50;;
7477;SDS011;3780;42.424;25.636;2023-04-25T22:27:57;4.75;;;2.40;;
7477;SDS011;3780;42.424;25.636;2023-04-25T22:30:22;3.42;;;2.60;;
7477;SDS011;3780;42.424;25.636;2023-04-25T22:32:48;2.97;;;2.33;;
7477;SDS011;3780;42.424;25.636;2023-04-25T22:35:13;4.28;;;2.47;;
7477;SDS011;3780;42.424;25.636;2023-04-25T22:37:39;5.22;;;2.40;;
7477;SDS011;3780;42.424;25.636;2023-04-25T22:40:05;3.92;;;2.28;;
7477;SDS011;3780;42.424;25.636;2023-04-25T22:42:40;4.13;;;2.30;;
7477;SDS011;3780;42.424;25.636;2023-04-25T22:45:06;3.97;;;2.25;;
7477;SDS011;3780;42.424;25.636;2023-04-25T22:47:32;4.38;;;2.00;;
7477;SDS011;3780;42.424;25.636;2023-04-25T22:49:57;2.50;;;2.15;;
7477;SDS011;3780;42.424;25.636;2023-04-25T22:52:24;2.95;;;1.90;;
7477;SDS011;3780;42.424;25.636;2023-04-25T22:54:49;4.15;;;2.78;;
7477;SDS011;3780;42.424;25.636;2023-04-25T22:57:15;4.93;;;2.20;;
7477;SDS011;3780;42.424;25.636;2023-04-25T22:59:40;2.88;;;2.50;;
7477;SDS011;3780;42.424;25.636;2023-04-25T23:02:06;3.80;;;2.90;;
7477;SDS011;3780;42.424;25.636;2023-04-25T23:04:31;2.47;;;1.90;;
7477;SDS011;3780;42.424;25.636;2023-04-25T23:06:56;4.30;;;2.22;;
7477;SDS011;3780;42.424;25.636;2023-04-25T23:09:22;2.50;;;2.25;;
7477;SDS011;3780;42.424;25.636;2023-04-25T23:11:47;2.90;;;2.20;;
7477;SDS011;3780;42.424;25.636;2023-04-25T23:14:17;2.20;;;1.80;;
7477;SDS011;3780;42.424;25.636;2023-04-25T23:16:42;3.30;;;2.15;;
7477;SDS011;3780;42.424;25.636;2023-04-25T23:19:08;7.22;;;2.10;;
7477;SDS011;3780;42.424;25.636;2023-04-25T23:21:33;2.78;;;2.17;;
7477;SDS011;3780;42.424;25.636;2023-04-25T23:23:58;3.60;;;2.25;;
7477;SDS011;3780;42.424;25.636;2023-04-25T23:26:24;2.42;;;1.90;;
7477;SDS011;3780;42.424;25.636;2023-04-25T23:28:49;3.55;;;2.08;;
7477;SDS011;3780;42.424;25.636;2023-04-25T23:31:14;3.40;;;2.42;;
7477;SDS011;3780;42.424;25.636;2023-04-25T23:33:40;4.18;;;2.40;;
7477;SDS011;3780;42.424;25.636;2023-04-25T23:36:05;4.35;;;2.42;;
7477;SDS011;3780;42.424;25.636;2023-04-25T23:38:31;3.08;;;2.20;;
7477;SDS011;3780;42.424;25.636;2023-04-25T23:40:57;3.67;;;2.30;;
7477;SDS011;3780;42.424;25.636;2023-04-25T23:43:22;2.90;;;2.17;;
7477;SDS011;3780;42.424;25.636;2023-04-25T23:45:47;6.38;;;2.60;;
7477;SDS011;3780;42.424;25.636;2023-04-25T23:48:13;4.75;;;3.00;;
7477;SDS011;3780;42.424;25.636;2023-04-25T23:50:39;3.00;;;2.60;;
7477;SDS011;3780;42.424;25.636;2023-04-25T23:53:05;4.00;;;2.53;;
7477;SDS011;3780;42.424;25.636;2023-04-25T23:55:31;5.15;;;2.47;;
7477;SDS011;3780;42.424;25.636;2023-04-25T23:57:56;3.38;;;2.60;;
